createdAt,value
2023-03-15T00:07:30.327Z,5.91
2023-03-15T00:17:30.358Z,5.90
2023-03-15T00:27:30.958Z,5.65
2023-03-15T00:37:30.821Z,5.33
2023-03-15T00:47:31.339Z,5.15
2023-03-15T00:57:31.301Z,4.12
2023-03-15T01:07:31.419Z,2.96
2023-03-15T01:17:31.494Z,2.95
2023-03-15T01:27:31.813Z,3.13
2023-03-15T01:37:31.853Z,3.35
2023-03-15T01:47:32.581Z,3.72
2023-03-15T01:57:32.217Z,3.83
2023-03-15T02:07:33.460Z,3.91
2023-03-15T02:17:32.688Z,4.00
2023-03-15T02:27:33.022Z,4.02
2023-03-15T02:37:33.107Z,3.98
2023-03-15T02:47:33.173Z,4.12
2023-03-15T02:57:33.337Z,4.02
2023-03-15T03:07:33.645Z,4.00
2023-03-15T03:17:33.834Z,3.50
2023-03-15T03:27:34.152Z,2.39
2023-03-15T03:37:34.185Z,2.18
2023-03-15T03:47:34.524Z,2.43
2023-03-15T03:57:34.555Z,2.66
2023-03-15T04:07:34.841Z,2.72
2023-03-15T04:17:34.881Z,2.72
2023-03-15T04:27:35.223Z,2.53
2023-03-15T04:37:35.301Z,2.49
2023-03-15T04:47:35.591Z,2.42
2023-03-15T04:57:35.663Z,2.34
2023-03-15T05:07:35.976Z,2.21
2023-03-15T05:17:36.025Z,2.14
2023-03-15T05:27:36.347Z,2.12
2023-03-15T05:37:36.380Z,2.17
2023-03-15T05:47:36.706Z,2.20
2023-03-15T05:57:36.735Z,2.30
2023-03-15T06:07:37.066Z,2.23
2023-03-15T06:17:37.099Z,2.16
2023-03-15T06:27:37.341Z,2.07
2023-03-15T06:37:37.617Z,2.05
2023-03-15T06:47:37.716Z,2.27
2023-03-15T06:57:37.753Z,2.53
2023-03-15T07:07:38.088Z,2.64
2023-03-15T07:17:38.119Z,3.13
2023-03-15T07:27:39.382Z,3.33
2023-03-15T07:37:44.137Z,3.66
2023-03-15T07:47:39.866Z,3.98
2023-03-15T07:57:39.112Z,4.45
2023-03-15T08:07:40.247Z,5.31
2023-03-15T08:17:39.579Z,5.61
2023-03-15T08:27:39.635Z,5.83
2023-03-15T08:37:40.987Z,6.43
2023-03-15T08:47:40.023Z,6.74
2023-03-15T08:57:40.326Z,6.77
2023-03-15T09:07:40.455Z,7.35
2023-03-15T09:17:48.261Z,7.49
2023-03-15T09:27:40.887Z,7.42
2023-03-15T09:37:41.176Z,8.07
2023-03-15T09:47:41.205Z,8.43
2023-03-15T09:57:41.557Z,8.43
2023-03-15T10:07:41.946Z,8.81
2023-03-15T10:17:51.861Z,9.72
2023-03-15T10:27:41.893Z,8.83
2023-03-15T10:37:42.184Z,9.29
2023-03-15T10:47:45.227Z,10.18
2023-03-15T10:57:43.613Z,9.97
2023-03-15T11:07:42.945Z,9.76
2023-03-15T11:17:42.985Z,11.54
2023-03-15T11:27:44.224Z,11.28
2023-03-15T11:37:43.470Z,10.17
2023-03-15T11:47:43.776Z,11.19
2023-03-15T11:57:43.839Z,9.28
2023-03-15T12:07:44.137Z,10.56
2023-03-15T12:17:44.285Z,9.94
2023-03-15T12:27:44.418Z,10.79
2023-03-15T12:37:44.445Z,10.17
2023-03-15T12:47:44.795Z,10.84
2023-03-15T12:57:44.844Z,9.93
2023-03-15T13:07:51.062Z,11.55
2023-03-15T13:17:46.050Z,11.60
2023-03-15T13:27:45.112Z,10.59
2023-03-15T13:37:45.344Z,10.81
2023-03-15T13:47:45.588Z,10.26
2023-03-15T13:57:45.639Z,10.32
2023-03-15T14:07:45.960Z,10.38
2023-03-15T14:17:45.989Z,10.12
2023-03-15T14:27:46.230Z,10.78
2023-03-15T14:37:46.465Z,10.40
2023-03-15T14:47:56.008Z,9.78
2023-03-15T14:57:47.860Z,9.87
2023-03-15T15:07:47.062Z,10.27
2023-03-15T15:17:47.105Z,10.17
2023-03-15T15:27:47.439Z,10.86
2023-03-15T15:37:47.466Z,10.45
2023-03-15T15:47:47.906Z,10.22
2023-03-15T15:57:47.806Z,9.61
2023-03-15T16:07:48.055Z,9.79
2023-03-15T16:17:48.566Z,9.65
2023-03-15T16:27:49.648Z,9.38
2023-03-15T16:37:48.806Z,9.26
2023-03-15T16:47:49.197Z,9.50
2023-03-15T16:57:49.359Z,9.17
2023-03-15T17:07:49.689Z,9.01
2023-03-15T17:17:49.723Z,8.98
2023-03-15T17:27:49.914Z,8.74
2023-03-15T17:37:50.152Z,8.74
2023-03-15T17:47:50.446Z,8.56
2023-03-15T17:57:55.052Z,8.45
2023-03-15T18:07:58.671Z,7.97
2023-03-15T18:17:51.536Z,7.64
2023-03-15T18:27:51.187Z,7.31
2023-03-15T18:37:51.173Z,7.34
2023-03-15T18:47:54.752Z,7.23
2023-03-15T18:57:51.562Z,7.06
2023-03-15T19:07:51.727Z,7.16
2023-03-15T19:17:51.846Z,6.92
2023-03-15T19:27:52.212Z,6.85
2023-03-15T19:37:52.283Z,6.64
2023-03-15T19:47:52.544Z,6.46
2023-03-15T19:57:52.621Z,6.36
2023-03-15T20:07:52.915Z,6.34
2023-03-15T20:17:52.984Z,6.01
2023-03-15T20:27:54.026Z,5.89
2023-03-15T20:37:53.270Z,5.79
2023-03-15T20:47:53.592Z,5.79
2023-03-15T20:57:54.763Z,5.36
2023-03-15T21:07:56.121Z,5.22
2023-03-15T21:17:53.900Z,5.17
2023-03-15T21:27:54.031Z,5.36
2023-03-15T21:37:53.932Z,5.38
2023-03-15T21:47:54.283Z,5.30
2023-03-15T21:57:54.330Z,5.25
2023-03-15T22:07:56.569Z,5.21
2023-03-15T22:17:54.832Z,4.73
2023-03-15T22:27:55.118Z,4.82
2023-03-15T22:37:55.158Z,4.60
2023-03-15T22:47:55.484Z,4.58
2023-03-15T22:57:55.515Z,4.41
2023-03-15T23:07:55.933Z,4.00
2023-03-15T23:17:55.966Z,3.88
2023-03-15T23:27:56.224Z,3.42
2023-03-15T23:37:56.518Z,3.24
2023-03-15T23:47:56.610Z,3.14
2023-03-15T23:57:56.884Z,3.08
